Time;durP1;ratioP1;P1;durP2;ratioP2;P2;SDS_P1;SDS_P2;PMS_P1;PMS_P2;Temp;Humidity;BMP_temperature;BMP_pressure;BME280_temperature;BME280_humidity;BME280_pressure;Samples;Min_cycle;Max_cycle;Signal;HPM_P1;HPM_P2
2021/05/02 00:05:01;;;;;;;10.05;7.40;;;7.40;99.90;;;;;;12277558;28;20058;-79
2021/05/02 00:11:05;;;;;;;10.55;8.07;;;6.70;99.90;;;;;;12283430;28;20052;-78
2021/05/02 00:17:07;;;;;;;11.15;8.18;;;6.40;99.90;;;;;;12280119;28;20063;-78
2021/05/02 00:23:13;;;;;;;13.73;9.02;;;6.00;99.90;;;;;;12278714;28;20070;-79
2021/05/02 00:29:16;;;;;;;15.55;10.20;;;5.90;99.90;;;;;;12281282;28;20126;-78
2021/05/02 00:35:23;;;;;;;13.85;9.68;;;6.10;99.90;;;;;;12282554;28;20457;-79
2021/05/02 00:41:31;;;;;;;12.95;9.98;;;6.10;99.90;;;;;;12275466;28;20469;-79
2021/05/02 00:47:36;;;;;;;12.98;10.45;;;6.20;99.90;;;;;;12273935;28;20056;-79
2021/05/02 00:53:56;;;;;;;13.95;10.23;;;6.20;99.90;;;;;;12320309;28;20126;-78
2021/05/02 01:00:06;;;;;;;15.20;10.93;;;6.10;99.90;;;;;;12324226;28;20055;-78
2021/05/02 01:06:10;;;;;;;15.15;10.82;;;6.10;99.90;;;;;;12292579;28;20066;-79
2021/05/02 01:12:14;;;;;;;14.27;11.03;;;5.90;99.90;;;;;;12291648;28;20519;-78
2021/05/02 01:18:18;;;;;;;18.93;12.20;;;5.90;99.90;;;;;;12295723;28;20098;-78
2021/05/02 01:24:20;;;;;;;16.35;11.38;;;5.80;99.90;;;;;;12291089;28;20086;-78
2021/05/02 01:30:23;;;;;;;16.60;11.90;;;6.30;99.90;;;;;;12290905;28;20124;-78
2021/05/02 01:36:24;;;;;;;17.65;12.13;;;6.30;99.90;;;;;;12286500;28;20150;-78
2021/05/02 01:42:26;;;;;;;16.02;11.98;;;6.10;99.90;;;;;;12290434;28;20077;-78
2021/05/02 01:48:29;;;;;;;18.98;12.07;;;6.10;99.90;;;;;;12290929;28;20044;-78
2021/05/02 01:54:32;;;;;;;16.33;12.43;;;6.20;99.90;;;;;;12284134;28;20215;-78
2021/05/02 02:00:56;;;;;;;16.58;13.00;;;6.00;99.90;;;;;;12290129;28;20082;-78
2021/05/02 02:06:58;;;;;;;20.40;13.70;;;5.70;99.90;;;;;;12288116;28;20036;-78
2021/05/02 02:13:00;;;;;;;19.10;13.85;;;5.80;99.90;;;;;;12293240;28;20150;-78
2021/05/02 02:19:01;;;;;;;21.30;14.88;;;6.00;99.90;;;;;;12280512;28;20051;-79
2021/05/02 02:25:05;;;;;;;18.33;13.93;;;5.90;99.90;;;;;;12278407;28;20051;-78
2021/05/02 02:31:08;;;;;;;21.27;14.18;;;6.00;99.90;;;;;;12283911;28;20058;-78
2021/05/02 02:37:18;;;;;;;18.80;14.02;;;5.80;99.90;;;;;;12284718;28;20051;-78
2021/05/02 02:43:30;;;;;;;18.92;14.27;;;5.70;99.90;;;;;;12276845;28;20381;-79
2021/05/02 02:49:33;;;;;;;20.05;15.25;;;5.60;99.90;;;;;;12287234;28;20096;-79
2021/05/02 02:55:38;;;;;;;21.40;14.60;;;5.50;99.90;;;;;;12274747;28;20555;-78
2021/05/02 03:01:42;;;;;;;19.63;14.43;;;5.60;99.90;;;;;;12277797;28;20347;-78
2021/05/02 03:07:47;;;;;;;21.50;14.23;;;5.90;99.90;;;;;;12283596;28;20423;-78
2021/05/02 03:13:49;;;;;;;23.75;14.90;;;5.70;99.90;;;;;;12287310;28;20080;-78
2021/05/02 03:19:58;;;;;;;20.85;15.68;;;5.70;99.90;;;;;;12275172;28;20079;-79
2021/05/02 03:26:08;;;;;;;19.95;14.90;;;5.70;99.90;;;;;;12278845;28;20073;-79
2021/05/02 03:32:12;;;;;;;23.33;15.98;;;5.50;99.90;;;;;;12277191;28;20550;-79
2021/05/02 03:38:30;;;;;;;26.83;17.15;;;5.50;99.90;;;;;;12275913;28;20043;-79
2021/05/02 03:44:31;;;;;;;21.83;15.90;;;5.50;99.90;;;;;;12279037;28;20172;-78
2021/05/02 03:50:32;;;;;;;22.02;16.90;;;5.90;99.90;;;;;;12277681;28;20055;-79
2021/05/02 03:56:44;;;;;;;22.23;16.23;;;6.00;99.90;;;;;;12279089;28;20056;-79
2021/05/02 04:02:45;;;;;;;22.42;16.98;;;5.70;99.90;;;;;;12276092;28;20082;-79
2021/05/02 04:08:47;;;;;;;25.23;17.13;;;5.80;99.90;;;;;;12283101;28;20472;-79
2021/05/02 04:14:48;;;;;;;26.23;17.70;;;5.50;99.90;;;;;;12288593;28;20135;-79
2021/05/02 04:20:49;;;;;;;27.98;18.55;;;5.50;99.90;;;;;;12282275;28;20416;-80
2021/05/02 04:26:53;;;;;;;24.50;17.88;;;5.50;99.90;;;;;;12285438;28;20055;-78
2021/05/02 04:32:54;;;;;;;24.88;17.92;;;5.80;99.90;;;;;;12280601;28;20130;-78
2021/05/02 04:38:55;;;;;;;24.75;18.08;;;6.00;99.90;;;;;;12281478;28;20130;-78
2021/05/02 04:44:57;;;;;;;27.45;17.90;;;6.30;99.90;;;;;;12285044;28;20100;-78
2021/05/02 04:50:58;;;;;;;22.90;16.40;;;6.30;99.90;;;;;;12284943;28;20055;-78
2021/05/02 04:57:00;;;;;;;22.30;16.27;;;6.30;99.90;;;;;;12278305;28;20458;-78
2021/05/02 05:03:02;;;;;;;22.27;15.50;;;6.30;99.90;;;;;;12281649;28;20493;-78
2021/05/02 05:09:08;;;;;;;19.13;13.88;;;6.10;99.90;;;;;;12281246;28;20142;-79
2021/05/02 05:15:10;;;;;;;21.70;14.68;;;6.20;99.90;;;;;;12282538;28;20282;-78
2021/05/02 05:21:11;;;;;;;19.38;13.88;;;6.10;99.90;;;;;;12283642;28;20043;-78
2021/05/02 05:27:13;;;;;;;20.00;13.32;;;6.20;99.90;;;;;;12283586;28;20170;-79
2021/05/02 05:33:14;;;;;;;18.13;12.38;;;6.40;99.90;;;;;;12281791;28;20123;-78
2021/05/02 05:39:15;;;;;;;19.10;12.10;;;6.50;99.90;;;;;;12283710;28;20133;-79
2021/05/02 05:45:19;;;;;;;20.95;12.52;;;6.50;99.90;;;;;;12279725;28;20039;-78
2021/05/02 05:51:21;;;;;;;18.02;13.07;;;6.40;99.90;;;;;;12283925;28;20063;-78
2021/05/02 05:57:22;;;;;;;20.23;12.70;;;6.70;99.90;;;;;;12278276;28;20071;-79
2021/05/02 06:03:24;;;;;;;21.48;12.98;;;6.80;99.90;;;;;;12280397;28;20544;-79
2021/05/02 06:09:25;;;;;;;18.63;12.07;;;7.10;99.90;;;;;;12291554;28;20070;-79
2021/05/02 06:15:26;;;;;;;17.15;12.00;;;7.10;99.90;;;;;;12277243;28;20081;-79
2021/05/02 06:21:28;;;;;;;16.70;10.70;;;7.30;99.90;;;;;;12276766;28;20051;-78
2021/05/02 06:27:29;;;;;;;15.65;11.48;;;7.30;99.90;;;;;;12280651;28;20602;-78
2021/05/02 06:33:30;;;;;;;18.88;11.18;;;7.10;99.90;;;;;;12275503;28;20070;-78
2021/05/02 06:39:32;;;;;;;17.13;10.77;;;7.10;99.90;;;;;;12278331;28;20158;-79
2021/05/02 06:45:33;;;;;;;16.00;10.20;;;7.00;99.90;;;;;;12279346;28;20105;-78
2021/05/02 06:51:35;;;;;;;15.82;10.57;;;7.10;99.90;;;;;;12274660;28;20090;-78
2021/05/02 06:57:37;;;;;;;16.50;9.65;;;7.30;99.90;;;;;;12271003;28;20048;-78
2021/05/02 07:03:38;;;;;;;14.90;10.38;;;7.20;99.90;;;;;;12278551;28;20047;-78
2021/05/02 07:09:39;;;;;;;15.20;10.23;;;7.30;99.90;;;;;;12276574;28;20073;-78
2021/05/02 07:15:40;;;;;;;16.48;10.18;;;7.20;99.90;;;;;;12274394;28;20509;-78
2021/05/02 07:21:42;;;;;;;13.60;9.40;;;7.20;99.90;;;;;;12277574;28;20667;-78
2021/05/02 07:27:43;;;;;;;12.20;8.90;;;7.20;99.90;;;;;;12279148;28;20073;-78
2021/05/02 07:33:45;;;;;;;14.18;8.93;;;7.30;99.90;;;;;;12277824;28;20044;-78
2021/05/02 07:39:47;;;;;;;16.95;9.32;;;7.30;99.90;;;;;;12285151;28;20116;-78
2021/05/02 07:45:48;;;;;;;15.95;9.65;;;7.50;99.90;;;;;;12280366;28;20550;-79
2021/05/02 07:51:50;;;;;;;14.88;9.75;;;7.50;99.90;;;;;;12274035;28;20450;-79
2021/05/02 07:57:51;;;;;;;12.70;8.63;;;7.40;99.90;;;;;;12281527;28;20454;-79
2021/05/02 08:03:52;;;;;;;13.68;8.38;;;7.60;99.90;;;;;;12279770;28;20078;-79
2021/05/02 08:09:56;;;;;;;12.30;7.57;;;7.60;99.90;;;;;;12271546;28;20089;-79
2021/05/02 08:15:57;;;;;;;14.82;7.72;;;7.60;99.90;;;;;;12277285;28;20043;-78
2021/05/02 08:22:02;;;;;;;12.88;7.95;;;7.70;99.90;;;;;;12272777;28;20561;-79
2021/05/02 08:28:04;;;;;;;10.77;7.18;;;7.80;99.90;;;;;;12277578;28;20051;-78
2021/05/02 08:34:05;;;;;;;13.77;7.50;;;7.80;99.90;;;;;;12272384;28;20079;-79
2021/05/02 08:40:08;;;;;;;12.27;6.60;;;7.90;99.90;;;;;;12274748;28;20060;-78
2021/05/02 08:46:10;;;;;;;13.55;6.93;;;7.90;99.90;;;;;;12277167;28;20052;-79
2021/05/02 08:52:11;;;;;;;12.57;6.65;;;7.80;99.90;;;;;;12278209;28;20184;-79
2021/05/02 08:58:15;;;;;;;12.95;7.07;;;7.90;99.90;;;;;;12275817;28;20047;-79
2021/05/02 09:04:17;;;;;;;10.38;5.95;;;8.00;99.90;;;;;;12276578;28;20047;-78
2021/05/02 09:10:21;;;;;;;10.68;5.55;;;8.20;99.90;;;;;;12277599;28;20043;-79
2021/05/02 09:16:22;;;;;;;9.15;5.20;;;8.10;99.90;;;;;;12277502;28;20039;-79
2021/05/02 09:22:24;;;;;;;10.52;4.35;;;8.20;99.90;;;;;;12278027;28;20040;-78
2021/05/02 09:28:43;;;;;;;8.18;4.32;;;8.40;99.90;;;;;;12334543;28;20040;-78
2021/05/02 09:34:52;;;;;;;8.57;4.50;;;8.70;99.90;;;;;;12328453;28;20047;-81
2021/05/02 09:40:56;;;;;;;8.05;3.95;;;8.80;99.90;;;;;;12331061;28;20082;-79
2021/05/02 09:47:29;;;;;;;5.97;3.30;;;8.90;99.90;;;;;;12297508;28;20050;-78
2021/05/02 09:53:30;;;;;;;7.93;3.65;;;8.80;99.90;;;;;;12272065;28;20077;-78
2021/05/02 09:59:33;;;;;;;8.40;3.85;;;8.80;99.90;;;;;;12280594;28;20147;-78
2021/05/02 10:05:50;;;;;;;8.02;3.72;;;8.70;99.90;;;;;;12278808;28;20082;-79
2021/05/02 10:11:52;;;;;;;6.90;3.33;;;8.40;99.90;;;;;;12281055;28;20134;-78
2021/05/02 10:17:53;;;;;;;9.48;3.50;;;8.60;99.90;;;;;;12273075;28;20055;-78
2021/05/02 10:23:54;;;;;;;4.65;3.03;;;8.80;99.90;;;;;;12283532;28;20543;-78
2021/05/02 10:29:58;;;;;;;5.40;2.75;;;9.30;99.90;;;;;;12272544;28;20132;-78
2021/05/02 10:36:20;;;;;;;6.45;3.17;;;9.80;99.90;;;;;;12278280;28;20043;-78
2021/05/02 10:42:37;;;;;;;4.47;2.50;;;9.80;99.90;;;;;;12271383;28;20127;-78
2021/05/02 10:48:45;;;;;;;6.57;2.75;;;9.90;99.90;;;;;;12268276;28;20054;-78
2021/05/02 10:54:47;;;;;;;5.65;2.65;;;9.90;99.90;;;;;;12276405;28;20101;-79
2021/05/02 11:00:50;;;;;;;7.07;2.80;;;10.40;99.90;;;;;;12283540;28;20132;-79
2021/05/02 11:06:54;;;;;;;6.05;2.63;;;10.70;99.90;;;;;;12285557;28;20175;-80
2021/05/02 11:12:55;;;;;;;5.05;2.33;;;11.40;99.90;;;;;;12281007;28;20043;-80
2021/05/02 11:18:56;;;;;;;3.53;1.42;;;11.90;99.90;;;;;;12281280;28;20059;-78
2021/05/02 11:24:59;;;;;;;3.95;1.23;;;11.20;99.90;;;;;;12272510;28;20157;-78
2021/05/02 11:31:00;;;;;;;2.60;1.38;;;10.30;99.90;;;;;;12272954;28;20586;-78
2021/05/02 11:37:01;;;;;;;3.22;1.42;;;9.90;99.90;;;;;;12272162;28;20051;-78
2021/05/02 11:43:07;;;;;;;4.30;1.52;;;10.00;99.90;;;;;;12276015;28;20126;-79
2021/05/02 11:49:08;;;;;;;3.25;1.48;;;10.40;99.90;;;;;;12275154;28;20135;-79
2021/05/02 11:55:26;;;;;;;1.58;0.90;;;10.90;99.90;;;;;;12274009;28;20144;-79
2021/05/02 12:01:30;;;;;;;2.53;0.80;;;10.70;99.90;;;;;;12275751;28;20051;-78
2021/05/02 12:07:31;;;;;;;1.80;0.80;;;10.10;99.90;;;;;;12273874;28;20082;-78
2021/05/02 12:13:32;;;;;;;2.20;0.90;;;9.90;99.90;;;;;;12270805;28;20371;-80
2021/05/02 12:19:36;;;;;;;3.40;1.05;;;10.10;99.90;;;;;;12271393;28;20193;-78
2021/05/02 12:25:40;;;;;;;2.72;1.00;;;10.40;99.90;;;;;;12265232;28;20051;-78
2021/05/02 12:31:42;;;;;;;3.63;1.10;;;10.70;99.90;;;;;;12273407;28;20393;-80
2021/05/02 12:37:44;;;;;;;2.50;0.80;;;11.60;99.90;;;;;;12272815;28;20045;-79
2021/05/02 12:43:48;;;;;;;2.85;1.13;;;12.10;99.90;;;;;;12276108;28;20066;-80
2021/05/02 12:50:04;;;;;;;;;;;10.60;99.90;;;;;;12269078;28;20078;-79
2021/05/02 12:56:05;;;;;;;4.00;1.40;;;9.50;99.90;;;;;;12276855;28;19979;-80
2021/05/02 13:02:15;;;;;;;2.33;1.27;;;9.20;99.90;;;;;;12280328;28;20192;-78
2021/05/02 13:08:16;;;;;;;4.35;1.05;;;8.90;99.90;;;;;;12280445;28;20043;-79
2021/05/02 13:14:21;;;;;;;3.15;1.05;;;8.80;99.90;;;;;;12289204;28;20125;-79
2021/05/02 13:20:22;;;;;;;1.95;1.02;;;9.20;99.90;;;;;;12279432;28;20066;-78
2021/05/02 13:26:26;;;;;;;2.42;1.13;;;9.90;99.90;;;;;;12283964;28;20138;-79
2021/05/02 13:32:27;;;;;;;3.70;1.20;;;10.00;99.90;;;;;;12276420;28;20398;-79
2021/05/02 13:38:29;;;;;;;3.97;1.40;;;11.40;99.90;;;;;;12277934;28;20058;-78
2021/05/02 13:44:30;;;;;;;3.65;1.40;;;10.80;99.90;;;;;;12276898;28;20082;-78
2021/05/02 13:50:32;;;;;;;4.72;1.63;;;10.60;99.90;;;;;;12278688;28;20126;-78
2021/05/02 13:56:33;;;;;;;4.40;1.52;;;10.80;99.90;;;;;;12275697;28;20051;-78
2021/05/02 14:02:34;;;;;;;3.95;1.60;;;10.60;99.90;;;;;;12269477;28;20059;-79
2021/05/02 14:08:37;;;;;;;5.70;1.50;;;10.60;99.90;;;;;;12271593;28;20587;-79
2021/05/02 14:14:41;;;;;;;3.70;1.80;;;10.90;99.90;;;;;;12272713;28;20075;-78
2021/05/02 14:20:44;;;;;;;4.80;1.58;;;10.80;99.90;;;;;;12275471;28;20209;-79
2021/05/02 14:26:45;;;;;;;6.57;1.23;;;10.90;99.90;;;;;;12279837;28;20082;-81
2021/05/02 14:32:47;;;;;;;5.30;1.50;;;11.10;99.90;;;;;;12284156;28;20055;-78
2021/05/02 14:38:48;;;;;;;8.38;1.40;;;10.90;99.90;;;;;;12273658;28;20054;-79
2021/05/02 14:44:49;;;;;;;2.85;1.40;;;11.00;99.90;;;;;;12277734;28;20056;-80
2021/05/02 14:50:51;;;;;;;3.53;1.30;;;11.00;99.90;;;;;;12271995;28;20071;-79
2021/05/02 14:56:52;;;;;;;3.40;1.27;;;11.30;99.90;;;;;;12272454;28;21180;-79
2021/05/02 15:02:54;;;;;;;4.43;1.67;;;11.60;99.90;;;;;;12280209;28;20047;-79
2021/05/02 15:08:56;;;;;;;4.93;1.67;;;11.30;99.90;;;;;;12280990;28;20082;-79
2021/05/02 15:14:57;;;;;;;6.65;1.13;;;10.80;99.90;;;;;;12281590;28;20043;-80
2021/05/02 15:20:59;;;;;;;5.15;1.00;;;10.90;99.90;;;;;;12280514;28;20077;-81
2021/05/02 15:27:00;;;;;;;3.35;1.40;;;10.60;99.90;;;;;;12279888;28;20220;-79
2021/05/02 15:33:01;;;;;;;4.28;1.20;;;10.40;99.90;;;;;;12257177;28;20042;-81
2021/05/02 15:39:05;;;;;;;3.70;1.23;;;10.10;99.90;;;;;;12281492;28;20047;-78
2021/05/02 15:45:07;;;;;;;7.85;1.40;;;10.10;99.90;;;;;;12256417;28;20503;-79
2021/05/02 15:51:09;;;;;;;2.70;1.23;;;10.20;99.90;;;;;;12278543;28;20927;-79
2021/05/02 15:57:10;;;;;;;2.53;1.38;;;10.00;99.90;;;;;;12275389;28;20181;-78
2021/05/02 16:03:12;;;;;;;3.67;1.80;;;9.90;99.90;;;;;;12289123;28;20124;-79
2021/05/02 16:09:14;;;;;;;4.45;1.50;;;9.80;99.90;;;;;;12275536;28;20043;-79
2021/05/02 16:15:17;;;;;;;3.10;1.30;;;9.70;99.90;;;;;;12266783;28;20044;-79
2021/05/02 16:21:18;;;;;;;4.80;1.42;;;9.50;99.90;;;;;;12279977;28;20099;-79
2021/05/02 16:27:19;;;;;;;4.95;1.52;;;9.60;99.90;;;;;;12267768;28;20082;-79
2021/05/02 16:33:21;;;;;;;4.88;1.45;;;9.60;99.90;;;;;;12270689;28;20074;-79
2021/05/02 16:39:24;;;;;;;4.95;1.40;;;9.60;99.90;;;;;;12269386;28;20134;-79
2021/05/02 16:45:27;;;;;;;2.00;1.00;;;9.60;99.90;;;;;;12277749;28;20047;-79
2021/05/02 16:51:29;;;;;;;4.65;1.25;;;9.20;99.90;;;;;;12278165;28;20135;-79
2021/05/02 16:57:31;;;;;;;5.15;0.93;;;9.60;99.90;;;;;;12283454;28;20135;-79
2021/05/02 17:03:32;;;;;;;3.53;1.30;;;9.70;99.90;;;;;;12278291;28;20562;-79
2021/05/02 17:09:33;;;;;;;3.80;1.50;;;9.90;99.90;;;;;;12280511;28;20079;-79
2021/05/02 17:15:35;;;;;;;2.35;1.27;;;9.60;99.90;;;;;;12273348;28;20115;-78
2021/05/02 17:21:36;;;;;;;4.32;2.10;;;9.60;99.90;;;;;;12272764;28;20051;-79
2021/05/02 17:27:38;;;;;;;3.60;1.45;;;9.50;99.90;;;;;;12277297;28;20051;-80
2021/05/02 17:33:46;;;;;;;3.17;1.35;;;9.60;99.90;;;;;;12274606;28;20043;-79
2021/05/02 17:39:50;;;;;;;6.80;1.33;;;9.20;99.90;;;;;;12274072;28;20064;-79
2021/05/02 17:45:51;;;;;;;3.90;1.40;;;9.20;99.90;;;;;;12285062;28;20821;-79
2021/05/02 17:51:52;;;;;;;3.55;1.45;;;10.20;99.90;;;;;;12268020;28;20063;-78
2021/05/02 17:57:54;;;;;;;3.58;1.33;;;10.20;99.90;;;;;;12273896;28;20043;-79
2021/05/02 18:03:55;;;;;;;3.45;1.20;;;9.60;99.90;;;;;;12272121;28;20131;-78
2021/05/02 18:09:56;;;;;;;4.38;1.33;;;9.30;99.90;;;;;;12278946;28;20071;-79
2021/05/02 18:15:57;;;;;;;4.28;1.45;;;8.90;99.90;;;;;;12267171;28;20070;-79
2021/05/02 18:21:59;;;;;;;3.63;1.50;;;8.50;99.90;;;;;;12271738;28;20054;-78
2021/05/02 18:28:02;;;;;;;4.28;1.85;;;8.50;99.90;;;;;;12275942;28;20051;-78
2021/05/02 18:34:03;;;;;;;2.30;1.30;;;8.30;99.90;;;;;;12269975;28;20044;-79
2021/05/02 18:40:06;;;;;;;5.32;1.52;;;8.20;99.90;;;;;;12275398;28;20054;-79
2021/05/02 18:46:07;;;;;;;3.58;1.35;;;8.10;99.90;;;;;;12278808;28;20568;-78
2021/05/02 18:52:08;;;;;;;4.22;1.70;;;7.90;99.90;;;;;;12276273;28;20116;-78
2021/05/02 18:58:10;;;;;;;5.78;2.20;;;7.80;99.90;;;;;;12280777;28;20410;-79
2021/05/02 19:04:12;;;;;;;3.13;1.38;;;7.60;99.90;;;;;;12272549;28;20118;-79
2021/05/02 19:10:14;;;;;;;4.80;1.75;;;7.40;99.90;;;;;;12275791;28;20078;-79
2021/05/02 19:16:15;;;;;;;3.80;1.30;;;7.50;99.90;;;;;;12282221;28;20126;-79
2021/05/02 19:22:16;;;;;;;2.10;1.17;;;7.30;99.90;;;;;;12277699;28;20556;-78
2021/05/02 19:28:19;;;;;;;5.07;1.60;;;7.30;99.90;;;;;;12277690;28;20043;-78
2021/05/02 19:34:20;;;;;;;3.75;1.30;;;7.30;99.90;;;;;;12272740;28;20047;-78
2021/05/02 19:40:27;;;;;;;2.20;1.23;;;7.40;99.90;;;;;;12285968;28;20659;-78
2021/05/02 19:46:28;;;;;;;4.28;1.42;;;7.40;99.90;;;;;;12273216;28;20051;-78
2021/05/02 19:52:30;;;;;;;3.83;1.30;;;7.30;99.90;;;;;;12278654;28;20078;-78
2021/05/02 19:58:31;;;;;;;2.45;1.15;;;7.30;99.90;;;;;;12278325;28;20073;-78
2021/05/02 20:04:33;;;;;;;4.07;1.48;;;7.00;99.90;;;;;;12271640;28;20086;-78
2021/05/02 20:10:36;;;;;;;3.30;1.35;;;7.00;99.90;;;;;;12269976;28;20043;-78
2021/05/02 20:16:37;;;;;;;3.58;1.60;;;6.90;99.90;;;;;;12277397;28;20051;-78
2021/05/02 20:22:39;;;;;;;3.25;1.30;;;6.90;99.90;;;;;;12275032;28;20784;-78
2021/05/02 20:28:41;;;;;;;4.68;1.90;;;6.90;99.90;;;;;;12271928;28;20138;-78
2021/05/02 20:34:46;;;;;;;4.43;2.03;;;6.90;99.90;;;;;;12272896;28;20089;-78
2021/05/02 20:40:47;;;;;;;3.38;1.52;;;6.90;99.90;;;;;;12275723;28;20138;-78
2021/05/02 20:46:49;;;;;;;5.35;1.50;;;6.90;99.90;;;;;;12277817;28;20571;-78
2021/05/02 20:52:50;;;;;;;3.65;1.90;;;7.00;99.90;;;;;;12275271;28;20142;-78
2021/05/02 20:58:52;;;;;;;3.75;1.60;;;6.70;99.90;;;;;;12274466;28;20735;-78
2021/05/02 21:04:53;;;;;;;6.60;1.75;;;6.40;99.90;;;;;;12274276;28;20185;-78
2021/05/02 21:10:54;;;;;;;3.75;1.80;;;6.10;99.90;;;;;;12271487;28;20075;-78
2021/05/02 21:16:56;;;;;;;4.53;2.10;;;5.80;99.90;;;;;;12283434;28;20047;-78
2021/05/02 21:22:57;;;;;;;6.50;2.10;;;5.60;99.90;;;;;;12279807;28;20079;-78
2021/05/02 21:28:58;;;;;;;3.25;2.20;;;5.80;99.90;;;;;;12281501;28;20043;-78
2021/05/02 21:35:00;;;;;;;6.57;2.10;;;5.90;99.90;;;;;;12281337;28;20500;-78
2021/05/02 21:41:01;;;;;;;3.88;2.40;;;6.10;99.90;;;;;;12286422;28;20036;-78
2021/05/02 21:47:03;;;;;;;4.68;2.45;;;6.20;99.90;;;;;;12284208;28;20044;-78
2021/05/02 21:53:08;;;;;;;5.25;2.30;;;6.10;99.90;;;;;;12282587;28;20075;-78
2021/05/02 21:59:09;;;;;;;4.97;2.25;;;6.10;99.90;;;;;;12278512;28;20051;-78
2021/05/02 22:05:11;;;;;;;4.97;2.63;;;6.10;99.90;;;;;;12279226;28;20090;-78
2021/05/02 22:11:14;;;;;;;6.60;2.40;;;6.00;99.90;;;;;;12291025;28;20047;-78
2021/05/02 22:17:15;;;;;;;6.78;2.70;;;5.90;99.90;;;;;;12277142;28;20097;-78
2021/05/02 22:23:18;;;;;;;5.10;2.45;;;5.70;99.90;;;;;;12278908;28;20047;-78
2021/05/02 22:29:19;;;;;;;6.05;2.38;;;5.80;99.90;;;;;;12276818;28;20047;-78
2021/05/02 22:35:21;;;;;;;6.30;2.78;;;5.70;99.90;;;;;;12283074;28;20503;-78
2021/05/02 22:41:25;;;;;;;6.90;2.40;;;5.20;99.90;;;;;;12281323;28;20039;-78
2021/05/02 22:47:26;;;;;;;3.77;2.40;;;5.30;99.90;;;;;;12283008;28;20086;-78
2021/05/02 22:53:27;;;;;;;4.93;2.60;;;5.30;99.90;;;;;;12280483;28;20051;-78
2021/05/02 22:59:29;;;;;;;7.00;2.60;;;5.40;99.90;;;;;;12282810;28;20047;-78
2021/05/02 23:05:31;;;;;;;4.40;2.42;;;5.40;99.90;;;;;;12280719;28;20051;-78
2021/05/02 23:11:32;;;;;;;6.85;2.55;;;5.20;99.90;;;;;;12275177;28;20051;-78
2021/05/02 23:17:33;;;;;;;5.28;2.97;;;4.70;99.90;;;;;;12301166;28;20071;-78
2021/05/02 23:23:35;;;;;;;4.32;2.80;;;4.40;99.90;;;;;;12325979;28;20035;-78
2021/05/02 23:29:36;;;;;;;8.68;2.78;;;4.50;99.90;;;;;;12319305;28;20429;-78
2021/05/02 23:35:37;;;;;;;5.55;3.13;;;4.40;99.90;;;;;;12274455;28;20044;-77
2021/05/02 23:41:41;;;;;;;7.88;2.80;;;4.30;99.90;;;;;;12274491;28;20097;-78
2021/05/02 23:47:43;;;;;;;5.50;2.73;;;4.40;99.90;;;;;;12275175;28;20101;-78
2021/05/02 23:53:44;;;;;;;6.05;2.80;;;4.40;99.90;;;;;;12271983;28;20094;-78
2021/05/02 23:59:45;;;;;;;5.22;3.00;;;4.20;99.90;;;;;;12274186;28;20055;-78
